Levante — 9HOB7 — position and weather

sailwx.info

Track history (hours):
 
Tides and Currents Weather Stations Pressure Air Temp Water Temp Dewpoint Dewpoint Depression Visibility Wind Speed Wind Dir Waves Ship Positions

Levante

Last reported at 2016-Aug-04 23:32 UTC. Time now 2016-Aug-30 15:00 UTC.
Position N 31°42' E 032°01'.
Warning: this ship's position is 25 days out of date.

Length 188.3 m; beam 28 m; draft 10.1 m.

Type: Ship. MMSI: 215440000.

Date/timePositionNaut miles runAvg speedWind from/ knotsBaromVisibWave heightAir tempDewpointWater temp
2016-Aug-04 23:32N 31°42' E 032°01'8 8.0
2016-Aug-04 22:34N 31°47' E 031°54'1511.6
2016-Aug-04 21:16N 31°53' E 031°38'912.3
2016-Aug-04 20:32N 31°57' E 031°28'1212.3
2016-Aug-04 19:33N 32°01' E 031°15'1512.1
2016-Aug-04 18:21N 32°07' E 030°59'1412.0
2016-Aug-04 17:13N 32°12' E 030°44'4612.3
2016-Aug-04 13:28N 32°31' E 029°54'1712.4
2016-Aug-04 12:06N 32°37' E 029°36'19512.5
2016-Aug-03 20:32N 33°54' E 026°02'14511.9
2016-Aug-03 08:24N 35°01' E 023°26'  
2016-Jul-31 16:33N 45°13' E 013°03'30 9.8
2016-Jul-31 13:32N 45°36' E 013°28'9 9.2
2016-Jul-31 12:33N 45°35' E 013°41'3 0.3
2016-Jul-31 03:27N 45°34' E 013°44'0 0.0
2016-Jul-30 22:33N 45°34' E 013°44'0 0.0
2016-Jul-30 21:27N 45°34' E 013°44'0 0.0
2016-Jul-30 19:30N 45°34' E 013°44'0 0.0
2016-Jul-30 18:27N 45°34' E 013°44'0 0.0
2016-Jul-30 17:09N 45°34' E 013°44'0 0.0
2016-Jul-30 16:27N 45°34' E 013°44'0 0.0
2016-Jul-30 15:33N 45°34' E 013°44'0 0.0
2016-Jul-30 14:30N 45°34' E 013°44'0 0.0
2016-Jul-30 13:33N 45°34' E 013°44'0 0.0
2016-Jul-30 09:33N 45°34' E 013°44'0 0.0
2016-Jul-30 08:33N 45°34' E 013°44'0 0.0
2016-Jul-30 07:27N 45°34' E 013°44'0 0.0
2016-Jul-30 06:33N 45°34' E 013°44'0 0.0
2016-Jul-30 04:33N 45°34' E 013°44'0 0.0
2016-Jul-30 03:18N 45°34' E 013°44'0 0.0
2016-Jul-30 02:18N 45°34' E 013°44'0 0.0
2016-Jul-30 01:26N 45°34' E 013°44'0 0.0
2016-Jul-30 00:29N 45°34' E 013°44'0 0.0
2016-Jul-29 23:29N 45°34' E 013°44'0 0.0
2016-Jul-29 22:32N 45°34' E 013°44'0 0.0
2016-Jul-29 21:17N 45°34' E 013°44'0 0.0
2016-Jul-29 20:29N 45°34' E 013°44'0 0.0
2016-Jul-29 19:32N 45°34' E 013°44'0 0.0
2016-Jul-29 18:29N 45°34' E 013°44'0 0.0
2016-Jul-29 17:32N 45°34' E 013°44'0 0.0
2016-Jul-29 16:32N 45°34' E 013°44'0 0.0
2016-Jul-28 17:30N 45°34' E 013°44'2 0.1
2016-Jul-28 02:20N 45°34' E 013°42'2 2.0
2016-Jul-28 01:25N 45°36' E 013°41'0 0.1
2016-Jul-27 22:33N 45°35' E 013°41'4 4.5
2016-Jul-27 21:33N 45°35' E 013°34'7 7.1
2016-Jul-27 20:32N 45°38' E 013°44'2 0.4
2016-Jul-27 15:27N 45°38' E 013°46'  
Track history (hours):
 
Tides and Currents Weather Stations Pressure Air Temp Water Temp Dewpoint Dewpoint Depression Visibility Wind Speed Wind Dir Waves Ship Positions

Levante

Last reported at 2016-Aug-04 23:32 UTC. Time now 2016-Aug-30 15:00 UTC.
Position N 31°42' E 032°01'.
Warning: this ship's position is 25 days out of date.

Length 188.3 m; beam 28 m; draft 10.1 m.

Type: Ship. MMSI: 215440000.

Date/timePositionNaut miles runAvg speedWind from/ knotsBaromVisibWave heightAir tempDewpointWater temp
2016-Aug-04 23:32N 31°42' E 032°01'8 8.0
2016-Aug-04 22:34N 31°47' E 031°54'1511.6
2016-Aug-04 21:16N 31°53' E 031°38'912.3
2016-Aug-04 20:32N 31°57' E 031°28'1212.3
2016-Aug-04 19:33N 32°01' E 031°15'1512.1
2016-Aug-04 18:21N 32°07' E 030°59'1412.0
2016-Aug-04 17:13N 32°12' E 030°44'4612.3
2016-Aug-04 13:28N 32°31' E 029°54'1712.4
2016-Aug-04 12:06N 32°37' E 029°36'19512.5
2016-Aug-03 20:32N 33°54' E 026°02'14511.9
2016-Aug-03 08:24N 35°01' E 023°26'  
2016-Jul-31 16:33N 45°13' E 013°03'30 9.8
2016-Jul-31 13:32N 45°36' E 013°28'9 9.2
2016-Jul-31 12:33N 45°35' E 013°41'3 0.3
2016-Jul-31 03:27N 45°34' E 013°44'0 0.0
2016-Jul-30 22:33N 45°34' E 013°44'0 0.0
2016-Jul-30 21:27N 45°34' E 013°44'0 0.0
2016-Jul-30 19:30N 45°34' E 013°44'0 0.0
2016-Jul-30 18:27N 45°34' E 013°44'0 0.0
2016-Jul-30 17:09N 45°34' E 013°44'0 0.0
2016-Jul-30 16:27N 45°34' E 013°44'0 0.0
2016-Jul-30 15:33N 45°34' E 013°44'0 0.0
2016-Jul-30 14:30N 45°34' E 013°44'0 0.0
2016-Jul-30 13:33N 45°34' E 013°44'0 0.0
2016-Jul-30 09:33N 45°34' E 013°44'0 0.0
2016-Jul-30 08:33N 45°34' E 013°44'0 0.0
2016-Jul-30 07:27N 45°34' E 013°44'0 0.0
2016-Jul-30 06:33N 45°34' E 013°44'0 0.0
2016-Jul-30 04:33N 45°34' E 013°44'0 0.0
2016-Jul-30 03:18N 45°34' E 013°44'0 0.0
2016-Jul-30 02:18N 45°34' E 013°44'0 0.0
2016-Jul-30 01:26N 45°34' E 013°44'0 0.0
2016-Jul-30 00:29N 45°34' E 013°44'0 0.0
2016-Jul-29 23:29N 45°34' E 013°44'0 0.0
2016-Jul-29 22:32N 45°34' E 013°44'0 0.0
2016-Jul-29 21:17N 45°34' E 013°44'0 0.0
2016-Jul-29 20:29N 45°34' E 013°44'0 0.0
2016-Jul-29 19:32N 45°34' E 013°44'0 0.0
2016-Jul-29 18:29N 45°34' E 013°44'0 0.0
2016-Jul-29 17:32N 45°34' E 013°44'0 0.0
2016-Jul-29 16:32N 45°34' E 013°44'0 0.0
2016-Jul-28 17:30N 45°34' E 013°44'2 0.1
2016-Jul-28 02:20N 45°34' E 013°42'2 2.0
2016-Jul-28 01:25N 45°36' E 013°41'0 0.1
2016-Jul-27 22:33N 45°35' E 013°41'4 4.5
2016-Jul-27 21:33N 45°35' E 013°34'7 7.1
2016-Jul-27 20:32N 45°38' E 013°44'2 0.4
2016-Jul-27 15:27N 45°38' E 013°46'  

Dump ship's entire track history